createdAt,value
2018-11-23T00:00:33.441Z,-0.90
2018-11-23T00:03:03.037Z,-0.80
2018-11-23T00:05:32.365Z,-0.80
2018-11-23T00:08:01.647Z,-0.80
2018-11-23T00:10:32.166Z,-0.70
2018-11-23T00:13:01.451Z,-0.70
2018-11-23T00:15:30.905Z,-0.60
2018-11-23T00:18:00.343Z,-0.60
2018-11-23T00:20:30.521Z,-0.60
2018-11-23T00:22:59.840Z,-0.50
2018-11-23T00:25:29.541Z,-0.40
2018-11-23T00:27:58.986Z,-0.40
2018-11-23T00:30:29.677Z,-0.40
2018-11-23T00:32:59.080Z,-0.40
2018-11-23T00:35:29.886Z,-0.30
2018-11-23T00:37:59.245Z,-0.30
2018-11-23T00:40:32.380Z,-0.20
2018-11-23T00:43:01.942Z,-0.20
2018-11-23T00:45:31.256Z,-0.20
2018-11-23T00:48:01.020Z,-0.10
2018-11-23T00:50:30.397Z,-0.10
2018-11-23T00:53:00.535Z,-0.10
2018-11-23T00:55:30.362Z,-0.20
2018-11-23T00:57:59.741Z,-0.20
2018-11-23T01:00:32.252Z,-0.20
2018-11-23T01:03:02.737Z,-0.20
2018-11-23T01:05:32.035Z,-0.30
2018-11-23T01:08:01.405Z,-0.30
2018-11-23T01:10:31.168Z,-0.40
2018-11-23T01:13:00.586Z,-0.40
2018-11-23T01:15:29.908Z,-0.50
2018-11-23T01:17:59.259Z,-0.50
2018-11-23T01:20:28.981Z,-0.60
2018-11-23T01:22:58.877Z,-0.60
2018-11-23T01:25:28.770Z,-0.70
2018-11-23T01:27:58.403Z,-0.80
2018-11-23T01:30:29.161Z,-0.90
2018-11-23T01:32:58.454Z,-0.90
2018-11-23T01:35:27.864Z,-0.90
2018-11-23T01:37:57.201Z,-0.90
2018-11-23T01:40:27.864Z,-0.90
2018-11-23T01:42:57.729Z,-1.00
2018-11-23T01:45:27.034Z,-0.90
2018-11-23T01:47:56.440Z,-0.90
2018-11-23T01:50:27.107Z,-0.80
2018-11-23T01:52:56.586Z,-0.60
2018-11-23T01:55:26.636Z,-0.50
2018-11-23T01:57:56.097Z,-0.40
2018-11-23T02:00:26.800Z,-0.40
2018-11-23T02:02:56.484Z,-0.20
2018-11-23T02:05:25.779Z,-0.10
2018-11-23T02:07:55.092Z,-0.10
2018-11-23T02:10:24.575Z,-0.10
2018-11-23T02:12:53.958Z,-0.10
2018-11-23T02:15:23.601Z,-0.10
2018-11-23T02:17:52.938Z,-0.10
2018-11-23T02:20:22.709Z,-0.20
2018-11-23T02:22:51.980Z,-0.20
2018-11-23T02:25:21.333Z,-0.30
2018-11-23T02:27:50.713Z,-0.40
2018-11-23T02:30:22.429Z,-0.40
2018-11-23T02:32:51.730Z,-0.50
2018-11-23T02:35:21.134Z,-0.60
2018-11-23T02:37:50.565Z,-0.80
2018-11-23T02:40:20.607Z,-0.90
2018-11-23T02:42:49.972Z,-0.90
2018-11-23T02:45:20.633Z,-1.00
2018-11-23T02:47:50.360Z,-1.10
2018-11-23T02:50:20.463Z,-1.10
2018-11-23T02:52:50.706Z,-1.20
2018-11-23T02:55:20.504Z,-1.30
2018-11-23T02:57:49.841Z,-1.30
2018-11-23T03:00:20.446Z,-1.40
2018-11-23T03:02:49.720Z,-1.40
2018-11-23T03:05:20.472Z,-1.50
2018-11-23T03:07:49.764Z,-1.50
2018-11-23T03:10:19.123Z,-1.50
2018-11-23T03:12:49.193Z,-1.50
2018-11-23T03:15:19.712Z,-1.50
2018-11-23T03:17:49.416Z,-1.60
2018-11-23T03:20:20.057Z,-1.60
2018-11-23T03:22:49.342Z,-1.60
2018-11-23T03:25:18.671Z,-1.60
2018-11-23T03:27:47.952Z,-1.60
2018-11-23T03:30:20.766Z,-1.60
2018-11-23T03:32:50.848Z,-1.60
2018-11-23T03:35:20.873Z,-1.60
2018-11-23T03:37:50.212Z,-1.70
2018-11-23T03:40:19.535Z,-1.70
2018-11-23T03:42:48.794Z,-1.70
2018-11-23T03:45:18.229Z,-1.70
2018-11-23T03:47:47.668Z,-1.70
2018-11-23T03:50:17.597Z,-1.70
2018-11-23T03:52:47.314Z,-1.80
2018-11-23T03:55:16.653Z,-1.80
2018-11-23T03:57:45.947Z,-1.80
2018-11-23T04:00:17.796Z,-1.80
2018-11-23T04:02:46.897Z,-1.80
2018-11-23T04:05:16.712Z,-1.80
2018-11-23T04:07:46.144Z,-1.80
2018-11-23T04:10:16.088Z,-1.90
2018-11-23T04:12:45.696Z,-1.90
2018-11-23T04:15:15.361Z,-1.90
2018-11-23T04:17:44.664Z,-2.00
2018-11-23T04:20:15.233Z,-1.90
2018-11-23T04:22:44.528Z,-1.90
2018-11-23T04:25:14.252Z,-2.00
2018-11-23T04:27:43.999Z,-2.00
2018-11-23T04:30:15.590Z,-2.00
2018-11-23T04:32:45.532Z,-2.00
2018-11-23T04:35:16.165Z,-2.00
2018-11-23T04:40:15.961Z,-2.00
2018-11-23T04:42:45.221Z,-2.00
2018-11-23T04:45:14.881Z,-2.00
2018-11-23T04:47:44.181Z,-2.00
2018-11-23T04:50:14.695Z,-2.00
2018-11-23T04:55:13.104Z,-2.00
2018-11-23T05:02:42.589Z,-2.00
2018-11-23T05:05:12.451Z,-2.00
2018-11-23T05:07:42.601Z,-2.00
2018-11-23T05:10:13.208Z,-2.00
2018-11-23T05:15:12.988Z,-2.00
2018-11-23T05:17:42.726Z,-2.10
2018-11-23T05:20:12.766Z,-2.10
2018-11-23T05:22:42.308Z,-2.10
2018-11-23T05:25:11.621Z,-2.10
2018-11-23T05:27:39.986Z,-4.90
2018-11-23T05:30:10.292Z,-2.20
2018-11-23T05:32:39.138Z,-2.20
2018-11-23T05:35:08.124Z,-2.20
2018-11-23T05:37:36.480Z,-2.20
2018-11-23T05:40:06.306Z,-2.20
2018-11-23T05:42:34.672Z,-2.20
2018-11-23T05:45:03.230Z,-2.20
2018-11-23T05:47:31.607Z,-2.20
2018-11-23T05:50:00.023Z,-2.20
2018-11-23T05:52:28.356Z,-2.20
2018-11-23T05:57:24.733Z,-2.20
2018-11-23T05:59:53.158Z,-2.30
2018-11-23T06:02:21.530Z,-2.20
2018-11-23T06:04:49.910Z,-2.30
2018-11-23T06:07:18.312Z,-2.30
2018-11-23T06:12:14.644Z,-2.20
2018-11-23T06:14:43.048Z,-2.30
2018-11-23T06:17:11.501Z,-2.30
2018-11-23T06:19:40.133Z,-2.30
2018-11-23T06:27:05.100Z,-2.30
2018-11-23T06:29:33.525Z,-2.30
2018-11-23T06:32:01.926Z,-2.30
2018-11-23T06:39:26.186Z,-2.20
2018-11-23T06:46:56.254Z,-2.20
2018-11-23T06:49:24.780Z,-2.20
2018-11-23T06:51:53.179Z,-2.20
2018-11-23T06:54:21.884Z,-2.20
2018-11-23T06:56:50.352Z,-2.20
2018-11-23T06:59:18.744Z,-2.20
2018-11-23T07:01:47.121Z,-2.20
2018-11-23T07:04:15.575Z,-2.20
2018-11-23T07:06:44.173Z,-2.20
2018-11-23T07:09:12.700Z,-2.10
2018-11-23T07:16:37.065Z,-2.00
2018-11-23T07:19:05.553Z,-1.90
2018-11-23T07:24:01.811Z,-1.90
2018-11-23T07:26:30.432Z,-1.90
2018-11-23T07:28:58.847Z,-1.90
2018-11-23T07:31:27.268Z,-1.80
2018-11-23T07:33:55.691Z,-1.80
2018-11-23T07:36:24.096Z,-1.80
2018-11-23T07:38:52.524Z,-1.70
2018-11-23T07:41:26.401Z,-1.60
2018-11-23T07:43:54.804Z,-1.60
2018-11-23T07:48:51.441Z,-1.40
2018-11-23T07:53:47.927Z,-1.30
2018-11-23T07:56:16.345Z,-1.30
2018-11-23T07:58:44.719Z,-1.20
2018-11-23T08:01:13.331Z,-1.20
2018-11-23T08:03:41.868Z,-1.20
2018-11-23T08:06:10.251Z,-1.10
2018-11-23T08:08:38.643Z,-1.10
2018-11-23T08:11:08.258Z,-1.00
2018-11-23T08:16:05.707Z,-0.90
2018-11-23T08:18:34.391Z,-0.70
2018-11-23T08:21:02.877Z,-0.40
2018-11-23T08:23:31.252Z,-0.10
2018-11-23T08:26:00.439Z,-0.10
2018-11-23T08:28:29.833Z,0.60
2018-11-23T08:30:59.164Z,0.70
2018-11-23T08:33:28.771Z,1.20
2018-11-23T08:35:58.069Z,1.50
2018-11-23T08:38:27.424Z,1.90
2018-11-23T08:40:56.885Z,2.40
2018-11-23T08:43:26.496Z,2.70
2018-11-23T08:50:54.810Z,4.10
2018-11-23T08:53:31.250Z,5.40
2018-11-23T08:56:00.728Z,2.70
2018-11-23T08:58:30.194Z,2.60
2018-11-23T09:00:59.465Z,2.50
2018-11-23T09:03:29.005Z,2.40
2018-11-23T09:05:58.504Z,2.40
2018-11-23T09:08:27.960Z,3.00
2018-11-23T09:10:57.761Z,3.60
2018-11-23T09:13:27.196Z,3.90
2018-11-23T09:15:57.103Z,4.80
2018-11-23T09:18:26.455Z,5.80
2018-11-23T09:20:55.769Z,6.60
2018-11-23T09:23:25.314Z,7.20
2018-11-23T09:25:54.894Z,7.80
2018-11-23T09:28:23.433Z,8.70
2018-11-23T09:30:51.809Z,9.60
2018-11-23T09:33:20.246Z,9.90
2018-11-23T09:35:48.642Z,9.60
2018-11-23T09:38:17.020Z,9.60
2018-11-23T09:40:45.524Z,10.30
2018-11-23T09:43:13.955Z,10.50
2018-11-23T09:45:42.391Z,10.70
2018-11-23T09:48:10.752Z,10.80
2018-11-23T09:50:39.215Z,11.20
2018-11-23T09:53:07.761Z,11.50
2018-11-23T09:55:37.815Z,10.30
2018-11-23T09:58:06.211Z,11.40
2018-11-23T10:00:36.904Z,11.60
2018-11-23T10:03:06.173Z,11.30
2018-11-23T10:08:04.818Z,10.90
2018-11-23T10:10:33.224Z,10.60
2018-11-23T10:13:01.659Z,10.70
2018-11-23T10:15:31.235Z,11.30
2018-11-23T10:17:59.648Z,11.60
2018-11-23T10:20:29.317Z,12.10
2018-11-23T10:22:57.771Z,12.20
2018-11-23T10:25:27.602Z,11.60
2018-11-23T10:27:56.380Z,11.60
2018-11-23T10:30:26.092Z,11.20
2018-11-23T10:32:56.019Z,10.70
2018-11-23T10:35:24.702Z,11.00
2018-11-23T10:37:54.552Z,11.00
2018-11-23T10:40:24.311Z,11.10
2018-11-23T10:42:53.281Z,10.30
2018-11-23T10:45:23.435Z,10.50
2018-11-23T10:47:52.634Z,10.70
2018-11-23T10:50:22.392Z,10.60
2018-11-23T10:52:50.985Z,10.80
2018-11-23T10:55:20.938Z,10.90
2018-11-23T10:57:49.840Z,11.10
2018-11-23T11:00:23.772Z,10.80
2018-11-23T11:02:58.025Z,10.90
2018-11-23T11:06:04.910Z,10.80
2018-11-23T11:08:33.299Z,11.10
2018-11-23T11:11:01.810Z,10.90
2018-11-23T11:13:30.361Z,10.50
2018-11-23T11:15:58.761Z,10.20
2018-11-23T11:18:27.211Z,10.60
2018-11-23T11:20:55.560Z,10.80
2018-11-23T11:23:23.956Z,10.80
2018-11-23T11:25:52.631Z,9.20
2018-11-23T11:28:21.124Z,10.50
2018-11-23T11:30:49.711Z,10.50
2018-11-23T11:33:18.172Z,10.50
2018-11-23T11:35:46.588Z,10.00
2018-11-23T11:38:15.003Z,10.20
2018-11-23T11:40:43.535Z,10.30
2018-11-23T11:43:12.256Z,10.50
2018-11-23T11:45:40.726Z,10.30
2018-11-23T11:48:09.845Z,10.30
2018-11-23T11:50:38.281Z,10.50
2018-11-23T11:53:06.753Z,10.50
2018-11-23T11:55:35.275Z,10.20
2018-11-23T11:58:03.715Z,10.10
2018-11-23T12:00:32.178Z,10.50
2018-11-23T12:03:00.532Z,10.50
2018-11-23T12:05:28.975Z,10.00
2018-11-23T12:07:57.359Z,9.60
2018-11-23T12:10:26.384Z,9.70
2018-11-23T12:12:54.976Z,9.50
2018-11-23T12:15:23.382Z,9.50
2018-11-23T12:17:51.967Z,9.50
2018-11-23T12:20:23.012Z,9.30
2018-11-23T12:22:51.689Z,9.10
2018-11-23T12:25:20.656Z,8.60
2018-11-23T12:27:49.038Z,8.10
2018-11-23T12:30:18.746Z,7.70
2018-11-23T12:32:48.284Z,7.50
2018-11-23T12:35:17.657Z,7.30
2018-11-23T12:37:46.176Z,7.10
2018-11-23T12:40:15.823Z,7.00
2018-11-23T12:42:44.848Z,6.90
2018-11-23T12:45:15.652Z,6.90
2018-11-23T12:47:44.108Z,6.90
2018-11-23T12:50:14.109Z,6.90
2018-11-23T12:52:42.520Z,6.80
2018-11-23T12:55:11.395Z,6.80
2018-11-23T12:57:40.443Z,6.80
2018-11-23T13:00:12.897Z,6.80
2018-11-23T13:02:41.446Z,6.80
2018-11-23T13:05:10.188Z,6.80
2018-11-23T13:07:38.573Z,6.80
2018-11-23T13:10:07.160Z,6.80
2018-11-23T13:12:36.286Z,6.90
2018-11-23T13:15:04.760Z,6.80
2018-11-23T13:17:33.133Z,6.80
2018-11-23T13:20:01.659Z,6.80
2018-11-23T13:22:30.092Z,6.80
2018-11-23T13:24:58.536Z,6.90
2018-11-23T13:27:26.889Z,6.80
2018-11-23T13:29:55.331Z,6.90
2018-11-23T13:32:23.715Z,6.80
2018-11-23T13:34:52.194Z,6.80
2018-11-23T13:37:20.577Z,6.90
2018-11-23T13:39:48.983Z,6.80
2018-11-23T13:42:17.360Z,6.80
2018-11-23T13:44:45.765Z,6.70
2018-11-23T13:47:14.158Z,6.70
2018-11-23T13:49:42.577Z,6.70
2018-11-23T13:54:48.355Z,6.80
2018-11-23T13:57:17.531Z,6.80
2018-11-23T13:59:46.241Z,6.70
2018-11-23T14:02:14.680Z,6.80
2018-11-23T14:04:43.151Z,6.80
2018-11-23T14:07:11.633Z,6.70
2018-11-23T14:09:39.995Z,6.70
2018-11-23T14:12:08.440Z,6.70
2018-11-23T14:14:36.980Z,6.60
2018-11-23T14:17:05.543Z,6.60
2018-11-23T14:19:33.923Z,6.50
2018-11-23T14:22:02.333Z,6.50
2018-11-23T14:24:30.731Z,6.40
2018-11-23T14:26:59.084Z,6.50
2018-11-23T14:29:27.682Z,6.50
2018-11-23T14:31:56.094Z,6.50
2018-11-23T14:34:24.904Z,6.50
2018-11-23T14:36:53.521Z,6.40
2018-11-23T14:39:21.892Z,6.40
2018-11-23T14:41:50.321Z,6.40
2018-11-23T14:44:18.924Z,6.40
2018-11-23T14:46:47.370Z,6.40
2018-11-23T14:49:15.916Z,6.30
2018-11-23T14:51:44.324Z,6.20
2018-11-23T14:54:12.760Z,6.10
2018-11-23T14:56:41.161Z,6.10
2018-11-23T14:59:09.628Z,6.10
2018-11-23T15:01:39.163Z,6.00
2018-11-23T15:04:07.574Z,5.90
2018-11-23T15:06:35.931Z,5.80
2018-11-23T15:09:07.308Z,5.80
2018-11-23T15:11:35.850Z,5.70
2018-11-23T15:14:04.464Z,5.70
2018-11-23T15:16:32.854Z,5.70
2018-11-23T15:19:01.348Z,5.60
2018-11-23T15:21:29.720Z,5.60
2018-11-23T15:24:00.840Z,5.50
2018-11-23T15:26:26.592Z,5.40
2018-11-23T15:28:55.056Z,5.30
2018-11-23T15:31:23.422Z,5.20
2018-11-23T15:33:51.868Z,5.20
2018-11-23T15:36:20.795Z,5.20
2018-11-23T15:38:50.996Z,5.10
2018-11-23T15:41:19.420Z,5.00
2018-11-23T15:43:47.801Z,5.00
2018-11-23T15:46:16.338Z,4.90
2018-11-23T15:48:44.796Z,4.90
2018-11-23T15:51:13.364Z,4.80
2018-11-23T15:53:41.840Z,4.90
2018-11-23T15:56:10.243Z,4.80
2018-11-23T15:58:38.632Z,4.80
2018-11-23T16:01:07.080Z,4.90
2018-11-23T16:03:35.614Z,5.00
2018-11-23T16:06:04.174Z,4.90
2018-11-23T16:08:32.596Z,4.90
2018-11-23T16:11:01.169Z,4.90
2018-11-23T16:13:30.579Z,4.90
2018-11-23T16:15:59.776Z,5.10
2018-11-23T16:18:28.372Z,5.00
2018-11-23T16:20:56.845Z,5.10
2018-11-23T16:23:25.354Z,5.20
2018-11-23T16:25:53.963Z,4.20
2018-11-23T16:28:22.484Z,5.20
2018-11-23T16:30:51.583Z,5.20
2018-11-23T16:33:21.764Z,5.10
2018-11-23T16:35:50.408Z,5.20
2018-11-23T16:38:25.942Z,5.20
2018-11-23T16:40:55.712Z,5.30
2018-11-23T16:43:24.194Z,5.30
2018-11-23T16:45:52.663Z,6.90
2018-11-23T16:48:21.915Z,5.20
2018-11-23T16:50:50.491Z,5.20
2018-11-23T16:53:19.143Z,5.10
2018-11-23T16:55:47.669Z,5.00
2018-11-23T16:58:16.164Z,4.90
2018-11-23T17:00:46.081Z,4.80
2018-11-23T17:03:16.162Z,4.70
2018-11-23T17:05:47.230Z,4.80
2018-11-23T17:08:15.849Z,4.70
2018-11-23T17:10:44.437Z,4.50
2018-11-23T17:13:12.925Z,4.40
2018-11-23T17:15:41.433Z,4.30
2018-11-23T17:18:10.176Z,4.10
2018-11-23T17:20:39.299Z,4.00
2018-11-23T17:23:08.696Z,3.90
2018-11-23T17:25:37.171Z,3.80
2018-11-23T17:28:07.124Z,3.70
2018-11-23T17:30:36.273Z,3.60
2018-11-23T17:33:05.386Z,3.50
2018-11-23T17:35:33.792Z,3.30
2018-11-23T17:38:02.275Z,3.20
2018-11-23T17:40:32.392Z,3.10
2018-11-23T17:43:00.849Z,3.10
2018-11-23T17:45:30.841Z,3.00
2018-11-23T17:47:59.675Z,2.90
2018-11-23T17:50:29.837Z,2.90
2018-11-23T17:52:58.827Z,2.80
2018-11-23T17:55:27.412Z,2.80
2018-11-23T17:57:56.242Z,2.70
2018-11-23T18:00:27.161Z,2.50
2018-11-23T18:02:56.442Z,2.50
2018-11-23T18:05:25.894Z,2.40
2018-11-23T18:07:54.462Z,2.40
2018-11-23T18:10:27.199Z,2.30
2018-11-23T18:12:56.505Z,2.20
2018-11-23T18:15:26.276Z,2.20
2018-11-23T18:17:55.750Z,2.10
2018-11-23T18:20:25.183Z,2.00
2018-11-23T18:22:54.533Z,2.00
2018-11-23T18:25:24.493Z,2.00
2018-11-23T18:27:58.251Z,1.90
2018-11-23T18:30:26.693Z,1.90
2018-11-23T18:32:55.189Z,1.90
2018-11-23T18:35:23.707Z,1.90
2018-11-23T18:37:52.230Z,1.80
2018-11-23T18:40:20.723Z,1.80
2018-11-23T18:42:49.312Z,1.70
2018-11-23T18:45:17.836Z,1.60
2018-11-23T18:47:46.352Z,1.60
2018-11-23T18:50:15.379Z,1.60
2018-11-23T18:52:43.837Z,1.60
2018-11-23T18:55:18.027Z,1.60
2018-11-23T18:57:41.377Z,1.60
2018-11-23T19:00:10.632Z,1.60
2018-11-23T19:02:39.174Z,1.70
2018-11-23T19:05:09.651Z,1.80
2018-11-23T19:07:38.203Z,2.00
2018-11-23T19:10:09.642Z,2.00
2018-11-23T19:12:39.216Z,2.00
2018-11-23T19:15:11.350Z,2.00
2018-11-23T19:17:40.855Z,2.10
2018-11-23T19:20:20.101Z,2.00
2018-11-23T19:22:50.892Z,2.10
2018-11-23T19:25:20.456Z,2.10
2018-11-23T19:27:49.965Z,2.00
2018-11-23T19:30:28.186Z,2.00
2018-11-23T19:32:51.854Z,2.00
2018-11-23T19:35:21.853Z,2.00
2018-11-23T19:37:51.218Z,2.00
2018-11-23T19:40:20.547Z,2.00
2018-11-23T19:42:49.904Z,2.00
2018-11-23T19:45:19.234Z,2.00
2018-11-23T19:47:48.769Z,2.00
2018-11-23T19:50:18.748Z,1.90
2018-11-23T19:52:48.371Z,1.90
2018-11-23T19:55:18.385Z,1.80
2018-11-23T19:57:48.389Z,1.70
2018-11-23T20:00:22.186Z,1.70
2018-11-23T20:02:52.585Z,1.60
2018-11-23T20:05:22.484Z,1.50
2018-11-23T20:07:54.274Z,1.40
2018-11-23T20:10:24.424Z,1.40
2018-11-23T20:12:55.424Z,1.30
2018-11-23T20:15:24.990Z,1.30
2018-11-23T20:17:54.484Z,1.20
2018-11-23T20:20:23.963Z,1.10
2018-11-23T20:22:53.544Z,1.10
2018-11-23T20:25:23.080Z,1.00
2018-11-23T20:27:53.461Z,1.00
2018-11-23T20:30:22.978Z,0.90
2018-11-23T20:32:52.495Z,0.90
2018-11-23T20:35:22.799Z,0.80
2018-11-23T20:37:52.366Z,0.70
2018-11-23T20:40:22.749Z,0.60
2018-11-23T20:42:52.409Z,0.60
2018-11-23T20:45:21.867Z,0.60
2018-11-23T20:47:51.361Z,0.50
2018-11-23T20:50:20.772Z,0.50
2018-11-23T20:52:50.438Z,0.50
2018-11-23T20:55:22.823Z,0.40
2018-11-23T20:57:52.390Z,0.40
2018-11-23T21:00:22.348Z,0.40
2018-11-23T21:02:52.708Z,0.30
2018-11-23T21:05:22.595Z,0.30
2018-11-23T21:07:52.254Z,0.20
2018-11-23T21:10:23.053Z,0.20
2018-11-23T21:12:52.880Z,0.20
2018-11-23T21:15:30.077Z,0.20
2018-11-23T21:18:04.202Z,0.10
2018-11-23T21:20:33.672Z,0.10
2018-11-23T21:23:03.123Z,0.10
2018-11-23T21:25:33.445Z,0.00
2018-11-23T21:28:02.970Z,0.00
2018-11-23T21:30:32.552Z,-0.10
2018-11-23T21:33:02.093Z,-0.10
2018-11-23T21:35:32.381Z,-0.10
2018-11-23T21:38:01.791Z,-0.10
2018-11-23T21:40:31.153Z,-0.20
2018-11-23T21:43:00.413Z,-0.10
2018-11-23T21:45:29.728Z,-0.20
2018-11-23T21:47:59.075Z,-0.20
2018-11-23T21:50:28.484Z,-0.20
2018-11-23T21:52:57.794Z,-0.30
2018-11-23T21:55:27.118Z,-0.30
2018-11-23T21:57:56.824Z,-0.30
2018-11-23T22:00:26.226Z,-0.40
2018-11-23T22:02:55.529Z,-0.40
2018-11-23T22:05:24.888Z,-0.40
2018-11-23T22:07:54.229Z,-0.40
2018-11-23T22:10:23.545Z,-0.40
2018-11-23T22:12:52.916Z,-0.40
2018-11-23T22:15:24.263Z,-0.40
2018-11-23T22:17:54.753Z,-0.40
2018-11-23T22:20:24.685Z,-0.40
2018-11-23T22:22:54.046Z,-0.50
2018-11-23T22:25:23.815Z,-0.50
2018-11-23T22:27:53.237Z,-0.50
2018-11-23T22:30:28.094Z,-0.50
2018-11-23T22:32:57.552Z,-0.50
2018-11-23T22:35:27.901Z,-0.60
2018-11-23T22:37:57.296Z,-0.60
2018-11-23T22:40:26.639Z,-0.60
2018-11-23T22:42:57.415Z,-0.60
2018-11-23T22:45:26.717Z,-0.60
2018-11-23T22:47:56.107Z,-0.50
2018-11-23T22:50:25.585Z,-0.50
2018-11-23T22:52:55.040Z,-0.50
2018-11-23T22:55:24.347Z,-0.30
2018-11-23T22:57:53.709Z,-0.30
2018-11-23T23:00:31.448Z,-0.20
2018-11-23T23:03:00.770Z,-0.20
2018-11-23T23:05:30.041Z,-0.10
2018-11-23T23:07:59.396Z,-0.10
2018-11-23T23:10:28.664Z,0.00
2018-11-23T23:12:58.072Z,0.00
2018-11-23T23:15:27.405Z,0.00
2018-11-23T23:17:56.738Z,0.00
2018-11-23T23:20:26.018Z,0.00
2018-11-23T23:22:55.381Z,0.10
2018-11-23T23:25:24.742Z,0.10
2018-11-23T23:27:54.199Z,0.10
2018-11-23T23:30:23.485Z,0.10
2018-11-23T23:32:52.788Z,0.10
2018-11-23T23:35:22.057Z,0.10
2018-11-23T23:37:51.432Z,0.00
2018-11-23T23:40:20.732Z,0.00
2018-11-23T23:42:50.057Z,0.00
2018-11-23T23:45:19.441Z,0.00
2018-11-23T23:47:48.778Z,0.00
2018-11-23T23:50:20.055Z,-0.10
2018-11-23T23:52:49.907Z,-0.20
2018-11-23T23:55:19.236Z,-0.20
2018-11-23T23:57:48.889Z,-0.30
